Time;durP1;ratioP1;P1;durP2;ratioP2;P2;SDS_P1;SDS_P2;PMS_P1;PMS_P2;Temp;Humidity;BMP_temperature;BMP_pressure;BME280_temperature;BME280_humidity;BME280_pressure;Samples;Min_cycle;Max_cycle;Signal;HPM_P1;HPM_P2
2021/12/14 00:02:06;;;;;;;15.82;10.75;;;;;;;7.40;100.00;102467.34;5040342;28;20040;-73
2021/12/14 00:04:33;;;;;;;15.57;10.85;;;;;;;7.41;100.00;102480.38;5054060;28;20024;-73
2021/12/14 00:07:04;;;;;;;19.17;9.43;;;;;;;7.44;100.00;102475.88;5045997;28;20108;-73
2021/12/14 00:09:34;;;;;;;16.92;11.00;;;;;;;7.38;100.00;102472.69;5042480;28;20029;-73
2021/12/14 00:12:54;;;;;;;18.13;11.65;;;;;;;7.46;100.00;102484.53;5048940;28;20053;-72
2021/12/14 00:15:21;;;;;;;15.07;10.40;;;;;;;7.28;100.00;102463.66;5059006;28;20025;-72
2021/12/14 00:17:54;;;;;;;18.65;10.05;;;;;;;7.45;100.00;102486.31;5050370;28;20041;-73
2021/12/14 00:20:22;;;;;;;14.82;10.18;;;;;;;7.43;100.00;102488.19;5048210;28;20523;-73
2021/12/14 00:25:37;;;;;;;14.82;8.90;;;;;;;7.16;100.00;102459.09;5044089;28;20045;-73
2021/12/14 00:28:11;;;;;;;19.73;9.43;;;;;;;7.46;100.00;102514.25;5047351;28;20376;-73
2021/12/14 00:30:37;;;;;;;17.58;9.85;;;;;;;7.48;100.00;102516.81;5045409;28;20111;-73
2021/12/14 00:33:08;;;;;;;16.98;10.43;;;;;;;7.47;100.00;102515.09;5044219;28;20121;-73
2021/12/14 00:35:34;;;;;;;;;;;;;;;7.50;100.00;102514.94;5051114;28;20051;-73
2021/12/14 00:38:00;;;;;;;19.30;10.23;;;;;;;7.46;100.00;102510.78;5046541;28;19925;-73
2021/12/14 00:40:38;;;;;;;19.45;11.77;;;;;;;7.51;100.00;102508.75;5018721;28;20031;-73
2021/12/14 00:43:04;;;;;;;27.58;10.77;;;;;;;7.33;100.00;102485.22;5048613;28;20636;-73
2021/12/14 00:45:32;;;;;;;18.48;10.50;;;;;;;7.47;100.00;102501.97;5051172;28;20111;-73
2021/12/14 00:47:59;;;;;;;18.80;11.15;;;;;;;7.45;100.00;102490.69;5056102;28;20600;-73
2021/12/14 00:50:27;;;;;;;19.15;10.23;;;;;;;7.34;100.00;102479.06;5048226;28;20029;-73
2021/12/14 00:52:53;;;;;;;19.05;10.85;;;;;;;7.38;100.00;102485.84;5051150;28;20030;-73
2021/12/14 00:55:28;;;;;;;23.40;10.95;;;;;;;7.47;100.00;102489.69;5042249;28;20053;-73
2021/12/14 00:57:54;;;;;;;14.75;10.02;;;;;;;7.32;100.00;102459.06;5048630;28;20043;-73
2021/12/14 01:00:24;;;;;;;21.67;10.75;;;;;;;7.27;100.00;102451.44;5019348;28;20458;-72
2021/12/14 01:02:50;;;;;;;18.13;10.50;;;;;;;7.47;100.00;102483.56;5046871;28;20668;-73
2021/12/14 01:05:23;;;;;;;15.60;10.50;;;;;;;7.45;100.00;102472.31;5048393;28;20116;-72
2021/12/14 01:07:49;;;;;;;16.15;9.80;;;;;;;7.50;100.00;102465.88;5054524;28;20037;-72
2021/12/14 01:10:26;;;;;;;17.05;10.00;;;;;;;7.50;100.00;102472.91;5046855;28;20026;-72
2021/12/14 01:12:56;;;;;;;16.52;9.15;;;;;;;7.44;100.00;102454.88;5046099;28;21577;-72
2021/12/14 01:15:32;;;;;;;18.00;9.27;;;;;;;7.45;100.00;102443.41;5046578;28;20023;-72
2021/12/14 01:20:58;;;;;;;13.18;9.52;;;;;;;7.38;100.00;102433.28;5043666;28;20397;-73
2021/12/14 01:23:34;;;;;;;12.10;8.18;;;;;;;7.45;100.00;102457.41;5038776;28;20029;-73
2021/12/14 01:26:08;;;;;;;15.02;9.48;;;;;;;7.47;100.00;102454.69;5046718;28;20029;-73
2021/12/14 01:28:34;;;;;;;19.48;9.27;;;;;;;7.36;100.00;102437.78;5051926;28;20431;-73
2021/12/14 01:31:21;;;;;;;19.35;9.57;;;;;;;7.45;100.00;102459.19;5042526;28;20422;-73
2021/12/14 01:33:53;;;;;;;13.40;8.90;;;;;;;7.45;100.00;102459.19;5041855;28;20029;-73
2021/12/14 01:36:37;;;;;;;12.38;8.60;;;;;;;7.38;100.00;102432.44;5044041;28;20144;-73
2021/12/14 01:41:58;;;;;;;16.55;9.68;;;;;;;7.44;100.00;102436.47;5039000;28;20094;-73
2021/12/14 01:44:27;;;;;;;12.90;9.25;;;;;;;7.37;100.00;102444.72;5037728;28;20029;-73
2021/12/14 01:47:10;;;;;;;15.15;7.65;;;;;;;7.50;100.00;102472.91;5048045;28;20461;-72
2021/12/14 01:49:37;;;;;;;14.68;8.20;;;;;;;7.51;100.00;102469.31;5050634;28;20466;-72
2021/12/14 01:52:10;;;;;;;12.45;7.72;;;;;;;7.53;100.00;102464.84;5045511;28;20182;-72
2021/12/14 01:54:41;;;;;;;13.40;7.78;;;;;;;7.53;100.00;102472.72;5044237;28;20049;-73
2021/12/14 01:57:11;;;;;;;18.95;9.25;;;;;;;7.43;100.00;102458.44;5044703;28;20382;-73
2021/12/14 01:59:42;;;;;;;17.17;9.15;;;;;;;7.44;100.00;102465.38;5042641;28;20033;-73
2021/12/14 02:02:29;;;;;;;16.02;8.88;;;;;;;7.43;100.00;102453.19;5046559;28;20021;-73
2021/12/14 02:04:54;;;;;;;14.65;7.80;;;;;;;7.53;100.00;102462.22;5041104;28;20033;-73
2021/12/14 02:07:22;;;;;;;15.85;10.15;;;;;;;7.53;100.00;102460.41;5040889;28;20041;-73
2021/12/14 02:09:59;;;;;;;12.60;8.38;;;;;;;7.53;100.00;102472.72;5045753;28;20419;-73
2021/12/14 02:12:27;;;;;;;15.05;9.70;;;;;;;7.52;100.00;102465.78;5042660;28;20025;-73
2021/12/14 02:15:02;;;;;;;15.57;9.98;;;;;;;7.53;100.00;102467.47;5044382;28;20036;-73
2021/12/14 02:17:27;;;;;;;16.20;9.30;;;;;;;7.49;100.00;102460.69;5045000;28;20521;-73
2021/12/14 02:19:53;;;;;;;23.90;10.55;;;;;;;7.42;100.00;102457.59;5026668;28;20061;-73
2021/12/14 02:22:19;;;;;;;18.10;10.70;;;;;;;7.46;100.00;102455.63;5044423;28;20034;-73
2021/12/14 02:24:49;;;;;;;19.77;10.35;;;;;;;7.43;100.00;102446.16;5050397;28;20041;-73
2021/12/14 02:27:15;;;;;;;20.80;12.47;;;;;;;7.37;100.00;102452.59;5041173;28;20472;-73
2021/12/14 02:29:43;;;;;;;19.77;12.68;;;;;;;7.34;100.00;102458.03;5045169;28;20127;-73
2021/12/14 02:32:22;;;;;;;20.80;11.90;;;;;;;7.26;100.00;102441.88;5041928;28;20040;-73
2021/12/14 02:34:52;;;;;;;22.70;11.77;;;;;;;7.35;100.00;102449.22;5044653;28;20037;-73
2021/12/14 02:37:22;;;;;;;20.42;12.65;;;;;;;7.27;100.00;102446.19;5039520;28;20044;-73
2021/12/14 02:40:00;;;;;;;26.35;13.50;;;;;;;7.32;100.00;102448.56;5048735;28;20466;-73
2021/12/14 02:42:30;;;;;;;20.30;11.23;;;;;;;7.31;100.00;102437.19;5019348;28;20033;-73
2021/12/14 02:44:57;;;;;;;18.65;11.38;;;;;;;7.36;100.00;102461.44;5046519;28;20040;-73
2021/12/14 02:47:24;;;;;;;24.75;12.63;;;;;;;7.36;100.00;102450.94;5044054;28;20500;-73
2021/12/14 02:49:50;;;;;;;23.90;14.60;;;;;;;7.35;100.00;102438.72;5045055;28;20521;-73
2021/12/14 02:52:27;;;;;;;19.30;12.13;;;;;;;7.32;100.00;102438.06;5038246;28;20025;-73
2021/12/14 02:54:57;;;;;;;20.02;10.80;;;;;;;7.30;100.00;102427.63;5036286;28;20047;-73
2021/12/14 02:57:27;;;;;;;21.17;12.38;;;;;;;7.21;100.00;102420.31;5049848;28;20488;-73
2021/12/14 02:59:54;;;;;;;19.25;12.57;;;;;;;7.14;100.00;102413.69;5046749;28;20385;-73
2021/12/14 03:02:30;;;;;;;21.35;13.18;;;;;;;7.20;100.00;102426.47;5040242;28;20033;-73
2021/12/14 03:05:01;;;;;;;19.38;12.43;;;;;;;7.27;100.00;102435.69;5037008;28;20029;-73
2021/12/14 03:07:34;;;;;;;26.15;13.30;;;;;;;7.10;100.00;102402.53;5045340;28;20029;-73
2021/12/14 03:10:19;;;;;;;22.40;13.55;;;;;;;7.17;100.00;102416.16;5039839;28;20033;-73
2021/12/14 03:12:51;;;;;;;23.35;12.60;;;;;;;7.27;100.00;102432.22;5037513;28;20032;-72
2021/12/14 03:15:28;;;;;;;22.77;13.80;;;;;;;7.25;100.00;102431.47;5034291;28;20033;-72
2021/12/14 03:17:57;;;;;;;27.45;13.48;;;;;;;7.25;100.00;102434.09;5035527;28;20068;-72
2021/12/14 03:20:31;;;;;;;25.15;13.43;;;;;;;7.26;100.00;102426.13;5048312;28;20027;-72
2021/12/14 03:23:12;;;;;;;24.95;13.85;;;;;;;7.26;100.00;102423.50;5038306;28;20067;-72
2021/12/14 03:25:42;;;;;;;22.48;13.77;;;;;;;7.28;100.00;102415.53;5038504;28;20028;-72
2021/12/14 03:28:09;;;;;;;23.80;14.50;;;;;;;7.25;100.00;102423.56;5050925;28;20639;-72
2021/12/14 03:30:47;;;;;;;21.80;12.98;;;;;;;7.28;100.00;102426.03;5044131;28;20040;-72
2021/12/14 03:33:18;;;;;;;27.17;14.40;;;;;;;7.19;100.00;102407.25;5041753;28;20044;-73
2021/12/14 03:35:49;;;;;;;23.25;13.60;;;;;;;7.25;100.00;102416.56;5046790;28;20075;-73
2021/12/14 03:38:30;;;;;;;22.20;11.75;;;;;;;7.27;100.00;102412.03;5037444;28;20059;-72
2021/12/14 03:41:17;;;;;;;24.05;12.88;;;;;;;7.33;100.00;102414.31;5034666;28;20021;-73
2021/12/14 03:44:05;;;;;;;21.23;12.70;;;;;;;7.29;100.00;102406.72;5041331;28;20025;-73
2021/12/14 03:46:35;;;;;;;25.35;13.75;;;;;;;7.33;100.00;102409.06;5054310;28;20083;-73
2021/12/14 03:49:02;;;;;;;24.30;13.63;;;;;;;7.34;100.00;102421.28;5045593;28;20041;-73
2021/12/14 03:51:28;;;;;;;20.58;12.40;;;;;;;7.36;100.00;102419.41;5040245;28;20025;-73
2021/12/14 03:53:56;;;;;;;23.50;12.95;;;;;;;7.34;100.00;102410.78;5038731;28;20044;-72
2021/12/14 03:56:22;;;;;;;19.95;12.68;;;;;;;7.26;100.00;102402.50;5037645;28;20112;-72
2021/12/14 03:58:48;;;;;;;20.73;13.63;;;;;;;7.25;100.00;102394.69;5038531;28;20385;-72
2021/12/14 04:01:22;;;;;;;26.52;13.05;;;;;;;7.34;100.00;102410.78;5033835;28;20477;-72
2021/12/14 04:03:50;;;;;;;22.27;13.50;;;;;;;7.34;100.00;102409.94;5033188;28;20029;-72
2021/12/14 04:06:17;;;;;;;22.80;13.48;;;;;;;7.31;100.00;102421.44;5041957;28;20028;-73
2021/12/14 04:08:44;;;;;;;24.95;13.13;;;;;;;7.25;100.00;102411.31;5039039;28;20037;-73
2021/12/14 04:11:11;;;;;;;25.88;16.00;;;;;;;7.27;100.00;102403.31;5038196;28;20022;-72
2021/12/14 04:13:46;;;;;;;23.08;13.88;;;;;;;7.11;100.00;102392.88;5041519;28;20034;-72
2021/12/14 04:16:17;;;;;;;21.95;11.80;;;;;;;7.23;100.00;102418.44;5041236;28;20101;-72
2021/12/14 04:18:42;;;;;;;26.27;14.75;;;;;;;7.28;100.00;102412.91;5038953;28;20481;-72
2021/12/14 04:21:08;;;;;;;23.75;13.13;;;;;;;7.25;100.00;102399.94;5039578;28;20119;-73
2021/12/14 04:23:38;;;;;;;23.75;13.50;;;;;;;7.25;100.00;102399.94;5057014;28;20041;-73
2021/12/14 04:26:05;;;;;;;24.48;14.35;;;;;;;7.30;100.00;102409.25;5035904;28;20036;-73
2021/12/14 04:28:38;;;;;;;26.25;14.23;;;;;;;7.28;100.00;102400.63;5035016;28;20026;-72
2021/12/14 04:31:03;;;;;;;29.70;15.68;;;;;;;7.25;100.00;102411.31;5043565;28;20025;-72
2021/12/14 04:33:33;;;;;;;25.00;14.85;;;;;;;7.07;100.00;102373.00;5037146;28;20528;-72
2021/12/14 04:36:02;;;;;;;28.13;15.30;;;;;;;7.15;100.00;102397.03;5043785;28;20401;-73
2021/12/14 04:38:30;;;;;;;27.90;15.35;;;;;;;7.07;100.00;102378.25;5043849;28;20063;-73
2021/12/14 04:52:01;;;;;;;28.35;15.90;;;;;;;7.19;100.00;102402.00;5044370;28;20052;-72
2021/12/14 04:54:30;;;;;;;28.42;15.43;;;;;;;7.26;100.00;102407.75;5044985;28;20053;-72
2021/12/14 04:56:57;;;;;;;31.77;15.38;;;;;;;7.28;100.00;102411.13;5043847;28;20436;-72
2021/12/14 04:59:27;;;;;;;27.65;14.32;;;;;;;7.32;100.00;102423.16;5046090;28;20064;-72
2021/12/14 05:01:57;;;;;;;31.85;17.10;;;;;;;7.34;100.00;102420.44;5046732;28;20082;-73
2021/12/14 05:04:25;;;;;;;25.40;13.82;;;;;;;7.38;100.00;102419.28;5048007;28;20024;-73
2021/12/14 05:06:56;;;;;;;23.83;14.27;;;;;;;7.38;100.00;102411.41;5049317;28;20079;-73
2021/12/14 05:09:29;;;;;;;27.25;15.70;;;;;;;7.28;100.00;102394.53;5040427;28;20044;-73
2021/12/14 05:11:55;;;;;;;30.38;18.05;;;;;;;7.27;100.00;102398.06;5045174;28;20033;-72
2021/12/14 05:14:21;;;;;;;31.15;16.63;;;;;;;7.24;100.00;102393.84;5047317;28;20117;-72
2021/12/14 05:16:47;;;;;;;33.60;15.85;;;;;;;7.13;100.00;102375.25;5048049;28;20112;-72
2021/12/14 05:19:13;;;;;;;36.47;18.70;;;;;;;7.09;100.00;102389.50;5047640;28;20453;-73
2021/12/14 05:21:46;;;;;;;30.30;17.73;;;;;;;6.98;100.00;102372.59;5044127;28;20033;-73
2021/12/14 05:24:15;;;;;;;28.52;13.93;;;;;;;6.93;100.00;102372.03;5046434;28;20473;-73
2021/12/14 05:26:42;;;;;;;29.98;15.55;;;;;;;7.18;100.00;102416.06;5053035;28;20506;-73
2021/12/14 05:29:10;;;;;;;31.42;16.42;;;;;;;7.14;100.00;102392.69;5047472;28;20040;-73
2021/12/14 05:31:45;;;;;;;33.20;17.83;;;;;;;7.21;100.00;102392.25;5029858;28;20041;-72
2021/12/14 05:34:12;;;;;;;30.90;15.13;;;;;;;7.24;100.00;102411.41;5040643;28;20110;-72
2021/12/14 05:36:40;;;;;;;25.98;16.05;;;;;;;7.32;100.00;102428.41;5043103;28;20377;-73
2021/12/14 05:44:28;;;;;;;28.25;15.32;;;;;;;7.03;100.00;102384.59;5043115;28;20447;-73
2021/12/14 05:46:59;;;;;;;28.83;13.75;;;;;;;7.30;100.00;102427.63;5041664;28;20029;-73
2021/12/14 05:49:27;;;;;;;27.75;15.88;;;;;;;7.40;100.00;102430.56;5038642;28;20108;-73
2021/12/14 05:51:57;;;;;;;26.58;15.00;;;;;;;7.43;100.00;102426.94;5041400;28;20083;-73
2021/12/14 05:54:28;;;;;;;31.08;15.85;;;;;;;7.30;100.00;102414.50;5039786;28;20057;-73
2021/12/14 05:56:56;;;;;;;30.33;15.48;;;;;;;7.37;100.00;102428.97;5041975;28;20032;-73
2021/12/14 05:59:27;;;;;;;31.20;16.90;;;;;;;7.37;100.00;102431.59;5043931;28;20055;-73
2021/12/14 06:01:53;;;;;;;27.80;15.88;;;;;;;7.32;100.00;102435.44;5041374;28;20111;-72
2021/12/14 06:04:19;;;;;;;28.48;15.35;;;;;;;7.28;100.00;102429.50;5045896;28;20065;-72
2021/12/14 06:06:52;;;;;;;30.13;15.35;;;;;;;7.10;100.00;102401.69;5042153;28;20537;-72
2021/12/14 06:09:24;;;;;;;31.58;15.23;;;;;;;7.26;100.00;102436.63;5042174;28;20060;-73
2021/12/14 06:11:54;;;;;;;31.40;17.15;;;;;;;7.18;100.00;102425.72;5043916;28;20025;-73
2021/12/14 06:14:22;;;;;;;28.05;16.15;;;;;;;7.22;100.00;102443.00;5040170;28;20048;-73
2021/12/14 06:16:52;;;;;;;30.88;17.52;;;;;;;7.18;100.00;102426.56;5034930;28;20135;-72
2021/12/14 06:19:29;;;;;;;43.58;16.90;;;;;;;7.29;100.00;102456.59;5044248;28;20025;-73
2021/12/14 06:22:04;;;;;;;30.27;16.00;;;;;;;7.28;100.00;102453.16;5042856;28;20033;-73
2021/12/14 06:24:31;;;;;;;30.52;15.50;;;;;;;7.30;100.00;102450.44;5038435;28;20037;-73
2021/12/14 06:27:01;;;;;;;31.00;16.45;;;;;;;7.20;100.00;102429.94;5039990;28;20034;-72
2021/12/14 06:29:30;;;;;;;30.45;17.50;;;;;;;7.18;100.00;102433.59;5039148;28;20028;-73
2021/12/14 06:31:58;;;;;;;32.28;17.00;;;;;;;7.36;100.00;102461.44;5035633;28;20025;-73
2021/12/14 06:34:28;;;;;;;30.90;17.10;;;;;;;7.37;100.00;102463.09;5038834;28;20029;-73
2021/12/14 06:37:14;;;;;;;34.78;16.80;;;;;;;7.35;100.00;102457.09;5030999;28;20033;-73
2021/12/14 06:40:01;;;;;;;32.63;15.68;;;;;;;7.34;100.00;102451.94;5042026;28;20115;-73
2021/12/14 06:42:27;;;;;;;32.40;16.48;;;;;;;7.40;100.00;102467.34;5032693;28;20104;-73
2021/12/14 06:45:05;;;;;;;34.75;16.33;;;;;;;7.35;100.00;102459.72;5049291;28;20128;-73
2021/12/14 06:47:31;;;;;;;28.60;17.17;;;;;;;7.44;100.00;102468.00;5038626;28;20036;-73
2021/12/14 06:50:00;;;;;;;31.25;16.92;;;;;;;7.28;100.00;102439.19;5039555;28;20040;-73
2021/12/14 06:52:26;;;;;;;32.85;15.45;;;;;;;7.44;100.00;102463.59;5034108;28;20120;-73
2021/12/14 06:54:52;;;;;;;27.70;15.25;;;;;;;7.46;100.00;102460.88;5036828;28;20055;-72
2021/12/14 06:57:17;;;;;;;29.58;16.48;;;;;;;7.39;100.00;102450.72;5033066;28;20037;-72
2021/12/14 06:59:43;;;;;;;32.13;16.15;;;;;;;7.32;100.00;102438.91;5031323;28;20123;-73
2021/12/14 07:02:10;;;;;;;29.90;17.67;;;;;;;7.44;100.00;102457.50;5032716;28;20032;-73
2021/12/14 07:04:42;;;;;;;30.45;16.17;;;;;;;7.27;100.00;102434.84;5037414;28;20033;-73
2021/12/14 07:07:11;;;;;;;33.00;16.35;;;;;;;7.49;100.00;102469.44;5040338;28;20030;-73
2021/12/14 07:09:40;;;;;;;33.30;16.70;;;;;;;7.48;100.00;102470.38;5036908;28;20029;-73
2021/12/14 07:12:10;;;;;;;28.92;16.20;;;;;;;7.50;100.00;102470.28;5039643;28;20064;-73
2021/12/14 07:14:51;;;;;;;35.88;16.95;;;;;;;7.49;100.00;102477.31;5041017;28;20579;-73
2021/12/14 07:17:28;;;;;;;35.13;16.73;;;;;;;7.26;100.00;102454.19;5033388;28;20107;-73
2021/12/14 07:20:11;;;;;;;45.78;18.27;;;;;;;7.39;100.00;102476.16;5041852;28;20021;-73
2021/12/14 07:22:46;;;;;;;31.25;16.83;;;;;;;7.41;100.00;102483.00;5038178;28;20032;-73
2021/12/14 07:25:21;;;;;;;31.30;15.95;;;;;;;7.39;100.00;102491.91;5043155;28;20028;-73
2021/12/14 07:27:52;;;;;;;31.50;17.45;;;;;;;7.36;100.00;102487.69;5041305;28;20033;-73
2021/12/14 07:30:37;;;;;;;36.80;18.98;;;;;;;7.23;100.00;102473.59;5037998;28;20025;-73
2021/12/14 07:33:13;;;;;;;31.50;17.42;;;;;;;7.18;100.00;102467.72;5040980;28;20065;-74
2021/12/14 07:36:02;;;;;;;33.10;16.33;;;;;;;7.35;100.00;102501.75;5039730;28;20024;-73
2021/12/14 07:38:37;;;;;;;30.35;16.33;;;;;;;7.34;100.00;102494.81;5037297;28;20043;-73
2021/12/14 07:41:09;;;;;;;31.05;16.27;;;;;;;7.37;100.00;102499.88;5051718;28;20029;-73
2021/12/14 07:43:41;;;;;;;29.60;17.10;;;;;;;7.28;100.00;102478.56;5041300;28;20029;-73
2021/12/14 07:46:27;;;;;;;32.17;17.80;;;;;;;7.39;100.00;102498.00;5035763;28;20492;-73
2021/12/14 07:48:57;;;;;;;32.22;16.88;;;;;;;7.39;100.00;102499.81;5031443;28;20106;-73
2021/12/14 07:51:24;;;;;;;38.10;18.73;;;;;;;7.43;100.00;102503.09;5035535;28;20401;-73
2021/12/14 07:53:55;;;;;;;32.20;17.58;;;;;;;7.41;100.00;102505.81;5036404;28;20059;-73
2021/12/14 07:56:28;;;;;;;34.03;18.00;;;;;;;7.47;100.00;102515.09;5036599;28;20026;-73
2021/12/14 07:58:55;;;;;;;35.92;17.40;;;;;;;7.44;100.00;102510.03;5031396;28;20028;-73
2021/12/14 08:01:21;;;;;;;36.60;17.52;;;;;;;7.44;100.00;102516.13;5038014;28;20251;-73
2021/12/14 08:03:47;;;;;;;32.58;16.45;;;;;;;7.46;100.00;102516.06;5035069;28;20485;-74
2021/12/14 08:06:14;;;;;;;38.08;18.02;;;;;;;7.32;100.00;102495.84;5037846;28;20025;-73
2021/12/14 08:08:44;;;;;;;30.83;17.40;;;;;;;7.31;100.00;102499.38;5038422;28;20036;-73
2021/12/14 08:14:08;;;;;;;31.67;16.65;;;;;;;7.49;100.00;102529.00;5033968;28;20037;-73
2021/12/14 08:16:43;;;;;;;31.35;16.90;;;;;;;7.42;100.00;102531.13;5036088;28;20028;-74
2021/12/14 08:19:13;;;;;;;33.83;16.58;;;;;;;7.40;100.00;102515.47;5042842;28;20516;-73
2021/12/14 08:21:42;;;;;;;29.25;17.02;;;;;;;7.50;100.00;102535.97;5033172;28;20033;-73
2021/12/14 08:24:08;;;;;;;37.28;18.85;;;;;;;7.40;100.00;102520.75;5040817;28;20025;-73
2021/12/14 08:26:40;;;;;;;35.40;17.60;;;;;;;7.49;100.00;102529.00;5047330;28;20405;-73
2021/12/14 08:29:11;;;;;;;34.15;16.95;;;;;;;7.50;100.00;102535.97;5041928;28;20033;-73
2021/12/14 08:31:53;;;;;;;29.73;15.88;;;;;;;7.59;100.00;102540.69;5045560;28;20029;-73
2021/12/14 08:34:23;;;;;;;33.80;18.33;;;;;;;7.55;100.00;102541.78;5037273;28;20028;-73
2021/12/14 08:36:53;;;;;;;33.15;16.85;;;;;;;7.60;100.00;102542.38;5048487;28;20591;-73
2021/12/14 08:39:26;;;;;;;30.63;16.55;;;;;;;7.63;100.00;102550.09;5037227;28;20806;-74
2021/12/14 08:42:04;;;;;;;36.33;17.85;;;;;;;7.64;100.00;102554.38;5045495;28;20040;-73
2021/12/14 08:44:38;;;;;;;35.63;18.15;;;;;;;7.66;100.00;102556.94;5034441;28;20036;-73
2021/12/14 08:47:06;;;;;;;44.58;18.50;;;;;;;7.54;100.00;102533.06;5047939;28;20079;-73
2021/12/14 08:49:34;;;;;;;31.30;18.23;;;;;;;7.66;100.00;102552.50;5039125;28;20048;-73
2021/12/14 08:52:00;;;;;;;32.92;17.15;;;;;;;7.68;100.00;102550.66;5033362;28;20449;-73
2021/12/14 08:54:29;;;;;;;33.58;16.50;;;;;;;7.70;100.00;102551.41;5034896;28;20053;-73
2021/12/14 08:57:29;;;;;;;36.95;19.83;;;;;;;7.70;100.00;102545.31;5041611;28;20025;-74
2021/12/14 09:00:01;;;;;;;40.60;17.10;;;;;;;7.64;100.00;102541.25;4961869;28;20050;-73
2021/12/14 09:02:29;;;;;;;36.03;17.08;;;;;;;7.58;100.00;102517.97;4965591;28;20042;-73
2021/12/14 09:05:11;;;;;;;37.45;18.83;;;;;;;7.68;100.00;102539.28;4964512;28;20502;-73
2021/12/14 09:07:37;;;;;;;39.50;17.38;;;;;;;7.61;100.00;102525.66;4967313;28;20029;-73
2021/12/14 09:10:09;;;;;;;40.65;19.30;;;;;;;7.67;100.00;102541.09;4946886;28;20119;-73
2021/12/14 09:12:39;;;;;;;38.25;17.50;;;;;;;7.71;100.00;102531.22;4953140;28;20514;-73
2021/12/14 09:15:24;;;;;;;42.85;18.90;;;;;;;7.65;100.00;102528.97;4955449;28;20074;-74
2021/12/14 09:17:50;;;;;;;34.53;18.15;;;;;;;7.71;100.00;102534.72;4959598;28;20137;-74
2021/12/14 09:20:24;;;;;;;40.40;18.38;;;;;;;7.74;100.00;102523.19;4957470;28;20031;-73
2021/12/14 09:22:57;;;;;;;39.90;17.75;;;;;;;7.71;100.00;102528.59;4953236;28;20110;-74
2021/12/14 09:25:26;;;;;;;37.33;18.27;;;;;;;7.72;100.00;102525.88;4957301;28;20089;-74
2021/12/14 09:27:52;;;;;;;39.63;17.25;;;;;;;7.73;100.00;102526.72;4943406;28;20039;-73
2021/12/14 09:30:21;;;;;;;38.35;18.58;;;;;;;7.60;100.00;102506.44;4953622;28;20035;-73
2021/12/14 09:32:47;;;;;;;38.20;18.38;;;;;;;7.74;100.00;102533.69;4960459;28;20035;-73
2021/12/14 09:35:17;;;;;;;43.60;20.08;;;;;;;7.73;100.00;102532.84;4994815;28;20074;-73
2021/12/14 09:37:47;;;;;;;39.38;17.30;;;;;;;7.64;100.00;102514.97;5043432;28;20024;-73
2021/12/14 09:40:19;;;;;;;47.33;21.83;;;;;;;7.63;100.00;102531.69;5035747;28;20071;-74
2021/12/14 09:42:45;;;;;;;39.40;18.67;;;;;;;7.61;100.00;102515.16;5050469;28;20029;-73
2021/12/14 09:45:21;;;;;;;46.78;19.65;;;;;;;7.67;100.00;102517.44;5035771;28;20078;-73
2021/12/14 09:47:46;;;;;;;42.60;18.10;;;;;;;7.75;100.00;102538.84;5033783;28;20491;-73
2021/12/14 09:50:25;;;;;;;40.97;19.50;;;;;;;7.82;100.00;102548.06;5038960;28;20029;-73
2021/12/14 09:52:52;;;;;;;43.78;20.83;;;;;;;7.81;100.00;102551.63;5040183;28;20152;-73
2021/12/14 09:55:22;;;;;;;45.17;19.35;;;;;;;7.80;100.00;102546.47;5053295;28;20569;-73
2021/12/14 09:57:51;;;;;;;51.33;21.52;;;;;;;7.81;100.00;102548.16;5043763;28;20430;-73
2021/12/14 10:00:19;;;;;;;48.42;21.00;;;;;;;7.85;100.00;102551.44;5036607;28;20025;-73
2021/12/14 10:02:47;;;;;;;41.70;19.40;;;;;;;7.90;100.00;102547.59;5038876;28;20489;-73
2021/12/14 10:05:21;;;;;;;44.65;19.45;;;;;;;7.91;100.00;102545.84;5045850;28;20477;-73
2021/12/14 10:07:48;;;;;;;53.60;21.13;;;;;;;7.74;100.00;102516.13;5043961;28;20441;-73
2021/12/14 10:10:17;;;;;;;43.20;17.83;;;;;;;7.89;100.00;102548.56;5023048;28;20030;-73
2021/12/14 10:12:50;;;;;;;48.90;20.05;;;;;;;7.90;100.00;102550.22;5041158;28;20039;-73
2021/12/14 10:15:24;;;;;;;41.67;19.42;;;;;;;7.93;100.00;102542.19;5048060;28;20032;-73
2021/12/14 10:17:53;;;;;;;47.38;20.50;;;;;;;7.90;100.00;102533.63;5033879;28;20064;-73
2021/12/14 10:20:28;;;;;;;48.47;19.50;;;;;;;7.92;100.00;102531.75;5043694;28;20159;-73
2021/12/14 10:22:54;;;;;;;40.30;19.10;;;;;;;8.00;100.00;102534.78;5038845;28;20043;-73
2021/12/14 10:25:23;;;;;;;43.05;20.77;;;;;;;7.91;100.00;102545.84;5044672;28;20509;-73
2021/12/14 10:27:50;;;;;;;34.97;18.17;;;;;;;7.95;100.00;102531.56;5042511;28;20021;-73
2021/12/14 10:30:26;;;;;;;49.03;22.42;;;;;;;7.96;100.00;102543.78;5040120;28;20036;-73
2021/12/14 10:32:52;;;;;;;42.40;20.73;;;;;;;7.97;100.00;102545.44;5043911;28;20032;-73
2021/12/14 10:35:23;;;;;;;34.47;18.35;;;;;;;8.03;100.00;102548.59;5043365;28;20178;-73
2021/12/14 10:37:56;;;;;;;38.63;18.95;;;;;;;8.06;100.00;102552.81;5039447;28;20024;-74
2021/12/14 10:43:22;;;;;;;37.33;17.42;;;;;;;8.07;100.00;102554.50;5036744;28;20463;-73
2021/12/14 10:45:53;;;;;;;51.40;20.48;;;;;;;8.15;100.00;102548.78;5042087;28;20033;-73
2021/12/14 10:48:24;;;;;;;40.20;19.02;;;;;;;7.97;100.00;102529.69;5036431;28;20090;-73
2021/12/14 10:50:50;;;;;;;;;;;;;;;8.05;100.00;102543.22;5037551;28;20029;-73
2021/12/14 10:53:20;;;;;;;39.45;16.90;;;;;;;8.06;100.00;102544.06;5036929;28;20429;-73
2021/12/14 10:56:17;;;;;;;41.63;18.98;;;;;;;8.06;100.00;102538.78;5036217;28;20563;-73
2021/12/14 10:58:45;;;;;;;37.50;17.88;;;;;;;8.04;100.00;102541.53;5037929;28;20692;-73
2021/12/14 11:01:15;;;;;;;45.55;17.67;;;;;;;8.06;100.00;102538.78;5045449;28;20116;-73
2021/12/14 11:03:46;;;;;;;41.03;17.60;;;;;;;8.14;100.00;102540.03;5035140;28;20029;-74
2021/12/14 11:06:14;;;;;;;42.17;18.73;;;;;;;8.15;100.00;102539.09;5037814;28;20021;-73
2021/12/14 11:11:35;;;;;;;47.80;18.75;;;;;;;8.16;100.00;102535.53;5039308;28;20404;-73
2021/12/14 11:14:05;;;;;;;44.83;18.40;;;;;;;8.20;100.00;102542.28;5047077;28;20051;-73
2021/12/14 11:19:41;;;;;;;40.83;16.40;;;;;;;8.16;100.00;102535.53;5034888;28;20048;-73
2021/12/14 11:22:17;;;;;;;38.15;16.70;;;;;;;8.20;100.00;102541.44;5044476;28;20041;-73
2021/12/14 11:24:46;;;;;;;41.40;17.38;;;;;;;8.18;100.00;102524.91;5042140;28;20044;-73
2021/12/14 11:27:25;;;;;;;35.60;17.10;;;;;;;8.08;100.00;102527.28;5036451;28;20087;-73
2021/12/14 11:30:21;;;;;;;35.60;15.23;;;;;;;8.14;100.00;102513.72;5034177;28;20025;-73
2021/12/14 11:33:06;;;;;;;35.45;16.67;;;;;;;8.18;100.00;102517.88;5034550;28;20033;-73
2021/12/14 11:35:33;;;;;;;38.35;19.50;;;;;;;8.29;100.00;102532.16;5035974;28;20036;-73
2021/12/14 11:38:02;;;;;;;32.67;15.98;;;;;;;8.25;100.00;102528.84;5032537;28;20432;-73
2021/12/14 11:40:32;;;;;;;40.97;19.20;;;;;;;8.32;100.00;102534.59;5031739;28;20326;-73
2021/12/14 11:43:14;;;;;;;35.78;16.45;;;;;;;8.26;100.00;102530.56;5040375;28;20041;-73
2021/12/14 11:45:41;;;;;;;31.42;15.27;;;;;;;8.23;100.00;102525.47;5040198;28;20055;-73
2021/12/14 11:48:07;;;;;;;38.50;16.05;;;;;;;8.27;100.00;102534.88;5032675;28;20105;-73
2021/12/14 11:50:37;;;;;;;37.13;16.80;;;;;;;8.28;100.00;102533.94;5026866;28;20151;-73
2021/12/14 11:53:14;;;;;;;36.80;16.33;;;;;;;8.28;100.00;102530.47;5032037;28;20077;-73
2021/12/14 11:55:51;;;;;;;32.42;16.27;;;;;;;8.27;100.00;102521.72;5033740;28;20629;-73
2021/12/14 11:58:30;;;;;;;30.50;15.48;;;;;;;8.37;100.00;102537.81;5050713;28;20392;-73
2021/12/14 12:01:28;;;;;;;32.20;15.23;;;;;;;8.37;100.00;102536.00;5047221;28;20527;-73
2021/12/14 12:04:10;;;;;;;31.98;16.13;;;;;;;8.28;100.00;102519.97;5034849;28;20052;-73
2021/12/14 12:09:33;;;;;;;35.05;14.85;;;;;;;8.46;100.00;102542.53;5034168;28;20041;-73
2021/12/14 12:12:07;;;;;;;35.03;16.27;;;;;;;8.47;100.00;102544.22;5033292;28;20550;-73